YPPD

Details ICAO YPPD (PHE)
Name Port Hedland Intl
Region Australia
Timezone Australia/Perth (UTC+8.0)
Plans Departing 19
Arriving 26
Stats Elevation 33 ft / 10 m (AMSL)
Location -20.378551° 118.629429°
Runways 2
Magnetic Variation 1.273° E
Sunrise 2017-12-11 21:20:10 UTC / 2017-12-12 05:20:10 Local
Sunset 2017-12-12 10:40:49 UTC / 2017-12-12 18:40:49 Local
Advertisement - Login to hide

Runways

ID Width Length Bearing (true) Bearing (mag) Surface Threshold Offset Overrun Length
14 148 ft / 45 m 8,216 ft / 2,504 m 137.60° 136.33° Asphalt 0 ft / 0 m 0 ft / 0 m
18 59 ft / 18 m 3,292 ft / 1,003 m 2.40° 1.13° Asphalt 0 ft / 0 m 0 ft / 0 m
32 148 ft / 45 m 8,216 ft / 2,504 m 317.60° 316.33° Asphalt 0 ft / 0 m 0 ft / 0 m
36 59 ft / 18 m 3,292 ft / 1,003 m 182.40° 181.13° Asphalt 0 ft / 0 m 0 ft / 0 m

Map

Weather


0- 5 10 15 20 25 30 35+ Temperature / ° C

Clouds and Precipitation
Forecast for 2017-12-12 06:00 UTC. Updated 2 hours ago

Ground ~20,000 ft ~40,000 ft Winds

METAR

YPPD 120500Z AUTO 30016KT 9999 // NCD 35/17 Q1009

TAF

TAF YPPD 112301Z 1200/1224 25008KT CAVOK BECMG 1202/1204 31018KT CAVOK FM121000 28014KT CAVOK

Frequencies

Unicom 119.60 MHz ACTIVATE LIGHTS ONLY MULT
Unicom 119.90 MHz PORT HEDLAND MULT
Unicom 118.60 MHz MELBOURNE CENTRE MULT
Warning: Do not use this data for real-world aviation or navigation. No guarantee of current accuracy is given.